sensor_id;sensor_type;location;lat;lon;timestamp;P1;durP1;ratioP1;P2;durP2;ratioP2
20772;SDS011;10546;50.674;4.616;2023-02-28T00:02:14;12.10;;;7.67;;
20772;SDS011;10546;50.674;4.616;2023-02-28T00:04:43;13.63;;;7.73;;
20772;SDS011;10546;50.674;4.616;2023-02-28T00:07:09;11.57;;;7.07;;
20772;SDS011;10546;50.674;4.616;2023-02-28T00:09:36;15.57;;;8.40;;
20772;SDS011;10546;50.674;4.616;2023-02-28T00:12:23;15.93;;;8.00;;
20772;SDS011;10546;50.674;4.616;2023-02-28T00:14:50;17.83;;;8.17;;
20772;SDS011;10546;50.674;4.616;2023-02-28T00:20:20;14.67;;;7.43;;
20772;SDS011;10546;50.674;4.616;2023-02-28T00:22:48;10.73;;;7.20;;
20772;SDS011;10546;50.674;4.616;2023-02-28T00:25:24;12.50;;;7.60;;
20772;SDS011;10546;50.674;4.616;2023-02-28T00:27:55;15.07;;;7.30;;
20772;SDS011;10546;50.674;4.616;2023-02-28T00:30:25;12.03;;;7.60;;
20772;SDS011;10546;50.674;4.616;2023-02-28T00:32:52;17.73;;;8.30;;
20772;SDS011;10546;50.674;4.616;2023-02-28T00:35:25;16.77;;;9.13;;
20772;SDS011;10546;50.674;4.616;2023-02-28T00:37:54;12.37;;;7.80;;
20772;SDS011;10546;50.674;4.616;2023-02-28T00:40:20;14.20;;;8.70;;
20772;SDS011;10546;50.674;4.616;2023-02-28T00:42:49;15.57;;;8.50;;
20772;SDS011;10546;50.674;4.616;2023-02-28T00:45:15;14.23;;;7.50;;
20772;SDS011;10546;50.674;4.616;2023-02-28T00:47:45;15.00;;;7.83;;
20772;SDS011;10546;50.674;4.616;2023-02-28T00:53:38;17.40;;;8.13;;
20772;SDS011;10546;50.674;4.616;2023-02-28T00:56:04;11.80;;;7.73;;
20772;SDS011;10546;50.674;4.616;2023-02-28T00:58:39;16.50;;;8.27;;
20772;SDS011;10546;50.674;4.616;2023-02-28T01:01:27;14.00;;;8.07;;
20772;SDS011;10546;50.674;4.616;2023-02-28T01:03:54;12.97;;;7.47;;
20772;SDS011;10546;50.674;4.616;2023-02-28T01:06:40;15.43;;;8.67;;
20772;SDS011;10546;50.674;4.616;2023-02-28T01:09:14;15.90;;;8.27;;
20772;SDS011;10546;50.674;4.616;2023-02-28T01:11:40;16.07;;;8.83;;
20772;SDS011;10546;50.674;4.616;2023-02-28T01:17:31;15.13;;;8.13;;
20772;SDS011;10546;50.674;4.616;2023-02-28T01:20:02;13.00;;;7.50;;
20772;SDS011;10546;50.674;4.616;2023-02-28T01:22:30;12.67;;;7.73;;
20772;SDS011;10546;50.674;4.616;2023-02-28T01:25:09;17.73;;;8.63;;
20772;SDS011;10546;50.674;4.616;2023-02-28T01:27:36;22.53;;;9.37;;
20772;SDS011;10546;50.674;4.616;2023-02-28T01:30:11;11.13;;;8.23;;
20772;SDS011;10546;50.674;4.616;2023-02-28T01:32:55;17.70;;;7.80;;
20772;SDS011;10546;50.674;4.616;2023-02-28T01:35:32;13.07;;;7.70;;
20772;SDS011;10546;50.674;4.616;2023-02-28T01:38:06;13.73;;;8.40;;
20772;SDS011;10546;50.674;4.616;2023-02-28T01:40:35;14.83;;;8.53;;
20772;SDS011;10546;50.674;4.616;2023-02-28T01:43:21;21.37;;;10.87;;
20772;SDS011;10546;50.674;4.616;2023-02-28T01:46:12;22.07;;;9.23;;
20772;SDS011;10546;50.674;4.616;2023-02-28T01:48:42;18.10;;;9.73;;
20772;SDS011;10546;50.674;4.616;2023-02-28T01:51:48;15.83;;;7.63;;
20772;SDS011;10546;50.674;4.616;2023-02-28T01:54:41;13.53;;;8.10;;
20772;SDS011;10546;50.674;4.616;2023-02-28T01:57:35;13.60;;;7.20;;
20772;SDS011;10546;50.674;4.616;2023-02-28T02:00:11;12.17;;;7.27;;
20772;SDS011;10546;50.674;4.616;2023-02-28T02:02:41;16.27;;;7.90;;
20772;SDS011;10546;50.674;4.616;2023-02-28T02:05:20;15.07;;;8.47;;
20772;SDS011;10546;50.674;4.616;2023-02-28T02:08:28;15.90;;;8.10;;
20772;SDS011;10546;50.674;4.616;2023-02-28T02:11:07;15.93;;;7.70;;
20772;SDS011;10546;50.674;4.616;2023-02-28T02:25:45;14.77;;;7.63;;
20772;SDS011;10546;50.674;4.616;2023-02-28T02:41:46;14.57;;;8.40;;
20772;SDS011;10546;50.674;4.616;2023-02-28T02:50:43;16.40;;;8.60;;
20772;SDS011;10546;50.674;4.616;2023-02-28T02:53:34;13.57;;;7.90;;
20772;SDS011;10546;50.674;4.616;2023-02-28T02:56:06;18.70;;;8.53;;
20772;SDS011;10546;50.674;4.616;2023-02-28T02:58:49;13.37;;;7.60;;
20772;SDS011;10546;50.674;4.616;2023-02-28T03:01:21;14.70;;;7.73;;
20772;SDS011;10546;50.674;4.616;2023-02-28T03:03:56;13.00;;;7.70;;
20772;SDS011;10546;50.674;4.616;2023-02-28T03:07:16;12.13;;;7.77;;
20772;SDS011;10546;50.674;4.616;2023-02-28T03:09:49;15.10;;;8.10;;
20772;SDS011;10546;50.674;4.616;2023-02-28T03:12:34;17.13;;;8.80;;
20772;SDS011;10546;50.674;4.616;2023-02-28T03:15:26;12.97;;;7.83;;
20772;SDS011;10546;50.674;4.616;2023-02-28T03:18:06;15.97;;;8.07;;
20772;SDS011;10546;50.674;4.616;2023-02-28T03:21:22;13.47;;;7.73;;
20772;SDS011;10546;50.674;4.616;2023-02-28T03:24:27;17.73;;;8.17;;
20772;SDS011;10546;50.674;4.616;2023-02-28T03:27:40;23.00;;;8.27;;
20772;SDS011;10546;50.674;4.616;2023-02-28T03:30:52;14.57;;;7.73;;
20772;SDS011;10546;50.674;4.616;2023-02-28T03:33:39;14.73;;;8.00;;
20772;SDS011;10546;50.674;4.616;2023-02-28T03:36:41;12.90;;;7.93;;
20772;SDS011;10546;50.674;4.616;2023-02-28T03:39:42;15.10;;;7.13;;
20772;SDS011;10546;50.674;4.616;2023-02-28T03:42:20;16.10;;;8.63;;
20772;SDS011;10546;50.674;4.616;2023-02-28T03:45:15;16.23;;;8.13;;
20772;SDS011;10546;50.674;4.616;2023-02-28T03:48:15;11.83;;;7.90;;
20772;SDS011;10546;50.674;4.616;2023-02-28T03:50:57;12.10;;;8.10;;
20772;SDS011;10546;50.674;4.616;2023-02-28T03:53:37;14.03;;;8.37;;
20772;SDS011;10546;50.674;4.616;2023-02-28T03:56:56;14.40;;;8.10;;
20772;SDS011;10546;50.674;4.616;2023-02-28T04:00:06;14.20;;;7.90;;
20772;SDS011;10546;50.674;4.616;2023-02-28T04:02:56;14.87;;;8.63;;
20772;SDS011;10546;50.674;4.616;2023-02-28T04:05:22;16.67;;;8.37;;
20772;SDS011;10546;50.674;4.616;2023-02-28T04:07:53;16.33;;;8.47;;
20772;SDS011;10546;50.674;4.616;2023-02-28T04:10:19;15.57;;;8.83;;
20772;SDS011;10546;50.674;4.616;2023-02-28T04:12:50;13.53;;;8.90;;
20772;SDS011;10546;50.674;4.616;2023-02-28T04:15:57;16.63;;;8.87;;
20772;SDS011;10546;50.674;4.616;2023-02-28T04:18:47;15.67;;;7.80;;
20772;SDS011;10546;50.674;4.616;2023-02-28T04:21:17;11.73;;;8.47;;
20772;SDS011;10546;50.674;4.616;2023-02-28T04:24:05;16.17;;;8.83;;
20772;SDS011;10546;50.674;4.616;2023-02-28T04:26:40;14.20;;;8.87;;
20772;SDS011;10546;50.674;4.616;2023-02-28T04:29:32;14.97;;;8.53;;
20772;SDS011;10546;50.674;4.616;2023-02-28T04:32:27;12.50;;;7.97;;
20772;SDS011;10546;50.674;4.616;2023-02-28T04:35:16;15.47;;;8.43;;
20772;SDS011;10546;50.674;4.616;2023-02-28T04:37:56;17.27;;;8.43;;
20772;SDS011;10546;50.674;4.616;2023-02-28T04:40:43;15.30;;;8.37;;
20772;SDS011;10546;50.674;4.616;2023-02-28T04:43:14;14.97;;;9.03;;
20772;SDS011;10546;50.674;4.616;2023-02-28T04:45:49;17.60;;;8.93;;
20772;SDS011;10546;50.674;4.616;2023-02-28T04:48:33;13.67;;;8.30;;
20772;SDS011;10546;50.674;4.616;2023-02-28T04:51:21;18.23;;;9.30;;
20772;SDS011;10546;50.674;4.616;2023-02-28T04:53:47;16.93;;;8.80;;
20772;SDS011;10546;50.674;4.616;2023-02-28T04:56:19;16.90;;;8.90;;
20772;SDS011;10546;50.674;4.616;2023-02-28T04:59:26;13.47;;;8.93;;
20772;SDS011;10546;50.674;4.616;2023-02-28T05:01:55;16.97;;;9.73;;
20772;SDS011;10546;50.674;4.616;2023-02-28T05:04:39;17.43;;;9.47;;
20772;SDS011;10546;50.674;4.616;2023-02-28T05:07:29;17.53;;;9.77;;
20772;SDS011;10546;50.674;4.616;2023-02-28T05:09:54;15.07;;;9.33;;
20772;SDS011;10546;50.674;4.616;2023-02-28T05:12:21;17.07;;;8.93;;
20772;SDS011;10546;50.674;4.616;2023-02-28T05:14:49;17.10;;;9.77;;
20772;SDS011;10546;50.674;4.616;2023-02-28T05:17:15;19.40;;;10.43;;
20772;SDS011;10546;50.674;4.616;2023-02-28T05:19:45;20.00;;;9.10;;
20772;SDS011;10546;50.674;4.616;2023-02-28T05:22:37;18.57;;;9.77;;
20772;SDS011;10546;50.674;4.616;2023-02-28T05:25:09;16.97;;;8.83;;
20772;SDS011;10546;50.674;4.616;2023-02-28T05:27:54;16.63;;;9.00;;
20772;SDS011;10546;50.674;4.616;2023-02-28T05:30:20;16.80;;;10.17;;
20772;SDS011;10546;50.674;4.616;2023-02-28T05:32:51;17.70;;;9.87;;
20772;SDS011;10546;50.674;4.616;2023-02-28T05:35:19;16.10;;;9.33;;
20772;SDS011;10546;50.674;4.616;2023-02-28T05:37:56;17.90;;;10.63;;
20772;SDS011;10546;50.674;4.616;2023-02-28T05:40:31;16.73;;;9.97;;
20772;SDS011;10546;50.674;4.616;2023-02-28T05:43:27;18.80;;;9.80;;
20772;SDS011;10546;50.674;4.616;2023-02-28T05:45:53;16.17;;;9.90;;
20772;SDS011;10546;50.674;4.616;2023-02-28T05:48:28;14.40;;;10.13;;
20772;SDS011;10546;50.674;4.616;2023-02-28T05:50:57;18.30;;;11.13;;
20772;SDS011;10546;50.674;4.616;2023-02-28T05:53:23;18.87;;;11.60;;
20772;SDS011;10546;50.674;4.616;2023-02-28T05:56:17;19.30;;;10.23;;
20772;SDS011;10546;50.674;4.616;2023-02-28T05:59:08;19.30;;;10.73;;
20772;SDS011;10546;50.674;4.616;2023-02-28T06:01:58;19.50;;;10.63;;
20772;SDS011;10546;50.674;4.616;2023-02-28T06:04:48;23.90;;;10.97;;
20772;SDS011;10546;50.674;4.616;2023-02-28T06:07:53;21.60;;;11.07;;
20772;SDS011;10546;50.674;4.616;2023-02-28T06:10:27;22.57;;;11.20;;
20772;SDS011;10546;50.674;4.616;2023-02-28T06:12:54;20.37;;;11.33;;
20772;SDS011;10546;50.674;4.616;2023-02-28T06:15:45;20.97;;;10.83;;
20772;SDS011;10546;50.674;4.616;2023-02-28T06:18:14;23.80;;;11.37;;
20772;SDS011;10546;50.674;4.616;2023-02-28T06:20:53;20.63;;;11.20;;
20772;SDS011;10546;50.674;4.616;2023-02-28T06:23:23;19.20;;;12.20;;
20772;SDS011;10546;50.674;4.616;2023-02-28T06:25:59;20.47;;;11.27;;
20772;SDS011;10546;50.674;4.616;2023-02-28T06:28:25;28.13;;;12.00;;
20772;SDS011;10546;50.674;4.616;2023-02-28T06:30:52;32.60;;;15.47;;
20772;SDS011;10546;50.674;4.616;2023-02-28T06:33:19;24.10;;;12.47;;
20772;SDS011;10546;50.674;4.616;2023-02-28T06:35:58;20.50;;;11.80;;
20772;SDS011;10546;50.674;4.616;2023-02-28T06:38:24;22.20;;;12.87;;
20772;SDS011;10546;50.674;4.616;2023-02-28T06:40:53;21.33;;;13.07;;
20772;SDS011;10546;50.674;4.616;2023-02-28T06:43:20;23.30;;;12.13;;
20772;SDS011;10546;50.674;4.616;2023-02-28T06:45:46;20.93;;;12.30;;
20772;SDS011;10546;50.674;4.616;2023-02-28T06:48:12;26.27;;;13.10;;
20772;SDS011;10546;50.674;4.616;2023-02-28T06:50:38;22.60;;;12.70;;
20772;SDS011;10546;50.674;4.616;2023-02-28T06:53:03;25.13;;;13.00;;
20772;SDS011;10546;50.674;4.616;2023-02-28T06:55:29;20.53;;;12.23;;
20772;SDS011;10546;50.674;4.616;2023-02-28T06:57:55;22.13;;;12.43;;
20772;SDS011;10546;50.674;4.616;2023-02-28T07:00:20;21.63;;;11.90;;
20772;SDS011;10546;50.674;4.616;2023-02-28T07:02:46;22.07;;;12.50;;
20772;SDS011;10546;50.674;4.616;2023-02-28T07:05:12;28.17;;;12.93;;
20772;SDS011;10546;50.674;4.616;2023-02-28T07:07:38;26.77;;;13.27;;
20772;SDS011;10546;50.674;4.616;2023-02-28T07:10:08;27.43;;;12.63;;
20772;SDS011;10546;50.674;4.616;2023-02-28T07:12:38;27.50;;;12.27;;
20772;SDS011;10546;50.674;4.616;2023-02-28T07:15:04;22.33;;;12.20;;
20772;SDS011;10546;50.674;4.616;2023-02-28T07:17:30;42.43;;;20.60;;
20772;SDS011;10546;50.674;4.616;2023-02-28T07:19:56;22.37;;;11.40;;
20772;SDS011;10546;50.674;4.616;2023-02-28T07:22:22;16.70;;;10.87;;
20772;SDS011;10546;50.674;4.616;2023-02-28T07:24:47;19.23;;;11.87;;
20772;SDS011;10546;50.674;4.616;2023-02-28T07:27:13;19.80;;;12.73;;
20772;SDS011;10546;50.674;4.616;2023-02-28T07:29:48;23.17;;;10.63;;
20772;SDS011;10546;50.674;4.616;2023-02-28T07:32:14;17.73;;;9.67;;
20772;SDS011;10546;50.674;4.616;2023-02-28T07:34:40;21.23;;;10.13;;
20772;SDS011;10546;50.674;4.616;2023-02-28T07:37:06;13.17;;;9.13;;
20772;SDS011;10546;50.674;4.616;2023-02-28T07:39:31;13.47;;;7.07;;
20772;SDS011;10546;50.674;4.616;2023-02-28T07:41:57;16.83;;;8.53;;
20772;SDS011;10546;50.674;4.616;2023-02-28T07:44:24;13.63;;;8.00;;
20772;SDS011;10546;50.674;4.616;2023-02-28T07:46:50;13.47;;;7.87;;
20772;SDS011;10546;50.674;4.616;2023-02-28T07:49:17;12.13;;;7.60;;
20772;SDS011;10546;50.674;4.616;2023-02-28T07:51:43;16.40;;;8.23;;
20772;SDS011;10546;50.674;4.616;2023-02-28T07:54:09;13.03;;;7.20;;
20772;SDS011;10546;50.674;4.616;2023-02-28T07:56:34;13.23;;;7.63;;
20772;SDS011;10546;50.674;4.616;2023-02-28T07:59:00;13.77;;;7.40;;
20772;SDS011;10546;50.674;4.616;2023-02-28T08:01:27;13.27;;;7.70;;
20772;SDS011;10546;50.674;4.616;2023-02-28T08:03:52;11.87;;;7.77;;
20772;SDS011;10546;50.674;4.616;2023-02-28T08:06:20;10.43;;;7.07;;
20772;SDS011;10546;50.674;4.616;2023-02-28T08:08:48;14.17;;;7.53;;
20772;SDS011;10546;50.674;4.616;2023-02-28T08:11:14;15.70;;;7.50;;
20772;SDS011;10546;50.674;4.616;2023-02-28T08:13:41;11.10;;;6.57;;
20772;SDS011;10546;50.674;4.616;2023-02-28T08:16:10;11.37;;;6.63;;
20772;SDS011;10546;50.674;4.616;2023-02-28T08:18:39;11.07;;;6.70;;
20772;SDS011;10546;50.674;4.616;2023-02-28T08:21:10;11.90;;;6.90;;
20772;SDS011;10546;50.674;4.616;2023-02-28T08:23:36;14.70;;;7.10;;
20772;SDS011;10546;50.674;4.616;2023-02-28T08:26:03;11.43;;;7.17;;
20772;SDS011;10546;50.674;4.616;2023-02-28T08:28:29;8.83;;;6.10;;
20772;SDS011;10546;50.674;4.616;2023-02-28T08:30:55;11.67;;;6.73;;
20772;SDS011;10546;50.674;4.616;2023-02-28T08:33:21;11.63;;;6.70;;
20772;SDS011;10546;50.674;4.616;2023-02-28T08:35:47;7.67;;;5.03;;
20772;SDS011;10546;50.674;4.616;2023-02-28T08:38:13;9.93;;;6.07;;
20772;SDS011;10546;50.674;4.616;2023-02-28T08:40:39;11.27;;;6.20;;
20772;SDS011;10546;50.674;4.616;2023-02-28T08:43:05;10.03;;;5.50;;
20772;SDS011;10546;50.674;4.616;2023-02-28T08:45:31;9.77;;;6.80;;
20772;SDS011;10546;50.674;4.616;2023-02-28T08:47:56;9.97;;;6.30;;
20772;SDS011;10546;50.674;4.616;2023-02-28T08:50:22;10.77;;;6.60;;
20772;SDS011;10546;50.674;4.616;2023-02-28T08:52:48;8.67;;;6.10;;
20772;SDS011;10546;50.674;4.616;2023-02-28T08:55:13;8.40;;;5.10;;
20772;SDS011;10546;50.674;4.616;2023-02-28T08:57:40;9.73;;;5.63;;
20772;SDS011;10546;50.674;4.616;2023-02-28T09:00:06;10.47;;;5.30;;
20772;SDS011;10546;50.674;4.616;2023-02-28T09:02:33;8.03;;;4.87;;
20772;SDS011;10546;50.674;4.616;2023-02-28T09:04:59;9.57;;;5.50;;
20772;SDS011;10546;50.674;4.616;2023-02-28T09:07:25;11.33;;;5.77;;
20772;SDS011;10546;50.674;4.616;2023-02-28T09:09:51;9.57;;;5.60;;
20772;SDS011;10546;50.674;4.616;2023-02-28T09:12:21;8.13;;;5.10;;
20772;SDS011;10546;50.674;4.616;2023-02-28T09:14:49;6.43;;;4.30;;
20772;SDS011;10546;50.674;4.616;2023-02-28T09:17:15;8.17;;;5.07;;
20772;SDS011;10546;50.674;4.616;2023-02-28T09:19:42;6.30;;;4.63;;
20772;SDS011;10546;50.674;4.616;2023-02-28T09:22:09;6.57;;;3.80;;
20772;SDS011;10546;50.674;4.616;2023-02-28T09:24:36;6.47;;;4.47;;
20772;SDS011;10546;50.674;4.616;2023-02-28T09:27:05;7.83;;;4.47;;
20772;SDS011;10546;50.674;4.616;2023-02-28T09:29:32;6.67;;;4.03;;
20772;SDS011;10546;50.674;4.616;2023-02-28T09:31:59;6.10;;;4.50;;
20772;SDS011;10546;50.674;4.616;2023-02-28T09:34:26;6.57;;;4.60;;
20772;SDS011;10546;50.674;4.616;2023-02-28T09:36:52;6.67;;;4.53;;
20772;SDS011;10546;50.674;4.616;2023-02-28T09:39:20;6.70;;;4.50;;
20772;SDS011;10546;50.674;4.616;2023-02-28T09:41:49;8.93;;;4.77;;
20772;SDS011;10546;50.674;4.616;2023-02-28T09:44:19;7.90;;;5.07;;
20772;SDS011;10546;50.674;4.616;2023-02-28T09:46:53;5.43;;;3.70;;
20772;SDS011;10546;50.674;4.616;2023-02-28T09:49:51;9.43;;;4.53;;
20772;SDS011;10546;50.674;4.616;2023-02-28T09:52:18;8.10;;;4.37;;
20772;SDS011;10546;50.674;4.616;2023-02-28T09:54:46;7.97;;;4.50;;
20772;SDS011;10546;50.674;4.616;2023-02-28T09:57:39;6.03;;;3.57;;
20772;SDS011;10546;50.674;4.616;2023-02-28T10:00:22;6.77;;;4.17;;
20772;SDS011;10546;50.674;4.616;2023-02-28T10:05:51;6.13;;;4.00;;
20772;SDS011;10546;50.674;4.616;2023-02-28T10:11:34;6.90;;;3.30;;
20772;SDS011;10546;50.674;4.616;2023-02-28T10:14:12;9.10;;;3.90;;
20772;SDS011;10546;50.674;4.616;2023-02-28T10:20:03;5.53;;;3.20;;
20772;SDS011;10546;50.674;4.616;2023-02-28T10:22:53;5.57;;;3.50;;
20772;SDS011;10546;50.674;4.616;2023-02-28T10:25:25;6.37;;;3.47;;
20772;SDS011;10546;50.674;4.616;2023-02-28T10:27:57;4.77;;;3.17;;
20772;SDS011;10546;50.674;4.616;2023-02-28T10:30:27;5.13;;;3.37;;
20772;SDS011;10546;50.674;4.616;2023-02-28T10:32:54;6.13;;;4.30;;
20772;SDS011;10546;50.674;4.616;2023-02-28T10:35:22;9.70;;;3.97;;
20772;SDS011;10546;50.674;4.616;2023-02-28T10:37:51;4.53;;;3.50;;
20772;SDS011;10546;50.674;4.616;2023-02-28T10:42:57;5.60;;;3.30;;
20772;SDS011;10546;50.674;4.616;2023-02-28T10:45:23;10.63;;;4.13;;
20772;SDS011;10546;50.674;4.616;2023-02-28T10:47:51;6.50;;;3.60;;
20772;SDS011;10546;50.674;4.616;2023-02-28T10:53:28;6.67;;;4.23;;
20772;SDS011;10546;50.674;4.616;2023-02-28T10:55:59;6.00;;;3.70;;
20772;SDS011;10546;50.674;4.616;2023-02-28T10:58:29;7.67;;;4.00;;
20772;SDS011;10546;50.674;4.616;2023-02-28T11:04:16;6.13;;;3.60;;
20772;SDS011;10546;50.674;4.616;2023-02-28T11:06:46;6.13;;;3.67;;
20772;SDS011;10546;50.674;4.616;2023-02-28T11:09:22;7.33;;;3.20;;
20772;SDS011;10546;50.674;4.616;2023-02-28T11:12:01;5.10;;;3.00;;
20772;SDS011;10546;50.674;4.616;2023-02-28T11:14:37;7.40;;;3.20;;
20772;SDS011;10546;50.674;4.616;2023-02-28T11:17:14;5.93;;;3.30;;
20772;SDS011;10546;50.674;4.616;2023-02-28T11:19:54;3.77;;;2.80;;
20772;SDS011;10546;50.674;4.616;2023-02-28T11:22:28;8.67;;;3.80;;
20772;SDS011;10546;50.674;4.616;2023-02-28T11:25:02;8.97;;;3.63;;
20772;SDS011;10546;50.674;4.616;2023-02-28T11:27:49;3.73;;;2.80;;
20772;SDS011;10546;50.674;4.616;2023-02-28T11:30:28;4.83;;;3.10;;
20772;SDS011;10546;50.674;4.616;2023-02-28T11:32:59;6.27;;;2.90;;
20772;SDS011;10546;50.674;4.616;2023-02-28T11:35:42;6.87;;;3.37;;
20772;SDS011;10546;50.674;4.616;2023-02-28T11:38:09;5.43;;;3.27;;
20772;SDS011;10546;50.674;4.616;2023-02-28T11:43:38;4.13;;;3.47;;
20772;SDS011;10546;50.674;4.616;2023-02-28T11:49:22;4.67;;;2.73;;
20772;SDS011;10546;50.674;4.616;2023-02-28T11:57:45;3.73;;;2.70;;
20772;SDS011;10546;50.674;4.616;2023-02-28T12:00:28;3.63;;;2.57;;
20772;SDS011;10546;50.674;4.616;2023-02-28T12:03:26;5.03;;;3.47;;
20772;SDS011;10546;50.674;4.616;2023-02-28T12:08:54;5.67;;;3.23;;
20772;SDS011;10546;50.674;4.616;2023-02-28T12:11:52;4.77;;;3.20;;
20772;SDS011;10546;50.674;4.616;2023-02-28T12:17:32;5.73;;;3.20;;
20772;SDS011;10546;50.674;4.616;2023-02-28T12:28:47;6.37;;;3.50;;
20772;SDS011;10546;50.674;4.616;2023-02-28T12:31:20;6.70;;;4.03;;
20772;SDS011;10546;50.674;4.616;2023-02-28T12:33:51;6.80;;;4.10;;
20772;SDS011;10546;50.674;4.616;2023-02-28T12:36:21;6.17;;;3.63;;
20772;SDS011;10546;50.674;4.616;2023-02-28T12:38:53;6.87;;;3.53;;
20772;SDS011;10546;50.674;4.616;2023-02-28T12:41:27;3.47;;;2.43;;
20772;SDS011;10546;50.674;4.616;2023-02-28T12:44:08;6.23;;;3.47;;
20772;SDS011;10546;50.674;4.616;2023-02-28T12:46:39;5.13;;;3.87;;
20772;SDS011;10546;50.674;4.616;2023-02-28T12:49:09;4.03;;;3.43;;
20772;SDS011;10546;50.674;4.616;2023-02-28T12:51:40;4.63;;;2.93;;
20772;SDS011;10546;50.674;4.616;2023-02-28T12:54:21;5.60;;;3.20;;
20772;SDS011;10546;50.674;4.616;2023-02-28T12:59:48;5.00;;;3.57;;
20772;SDS011;10546;50.674;4.616;2023-02-28T13:04:57;7.97;;;2.90;;
20772;SDS011;10546;50.674;4.616;2023-02-28T13:10:41;6.17;;;4.10;;
20772;SDS011;10546;50.674;4.616;2023-02-28T13:13:19;4.33;;;3.27;;
20772;SDS011;10546;50.674;4.616;2023-02-28T13:16:06;9.07;;;4.40;;
20772;SDS011;10546;50.674;4.616;2023-02-28T13:18:39;5.13;;;3.27;;
20772;SDS011;10546;50.674;4.616;2023-02-28T13:21:27;6.67;;;2.97;;
20772;SDS011;10546;50.674;4.616;2023-02-28T13:39:54;4.97;;;3.43;;
20772;SDS011;10546;50.674;4.616;2023-02-28T13:45:32;4.80;;;3.30;;
20772;SDS011;10546;50.674;4.616;2023-02-28T13:50:38;6.53;;;2.53;;
20772;SDS011;10546;50.674;4.616;2023-02-28T14:04:19;6.27;;;3.57;;
20772;SDS011;10546;50.674;4.616;2023-02-28T14:06:53;5.63;;;2.80;;
20772;SDS011;10546;50.674;4.616;2023-02-28T14:09:26;5.43;;;3.37;;
20772;SDS011;10546;50.674;4.616;2023-02-28T14:15:25;7.97;;;2.70;;
20772;SDS011;10546;50.674;4.616;2023-02-28T14:18:05;4.53;;;2.80;;
20772;SDS011;10546;50.674;4.616;2023-02-28T14:20:42;5.07;;;3.43;;
20772;SDS011;10546;50.674;4.616;2023-02-28T14:29:12;12.63;;;3.53;;
20772;SDS011;10546;50.674;4.616;2023-02-28T14:34:48;4.73;;;3.30;;
20772;SDS011;10546;50.674;4.616;2023-02-28T14:37:28;4.80;;;3.03;;
20772;SDS011;10546;50.674;4.616;2023-02-28T14:39:57;3.60;;;2.97;;
20772;SDS011;10546;50.674;4.616;2023-02-28T14:42:36;4.37;;;2.70;;
20772;SDS011;10546;50.674;4.616;2023-02-28T14:45:21;4.23;;;3.13;;
20772;SDS011;10546;50.674;4.616;2023-02-28T14:47:48;4.97;;;3.70;;
20772;SDS011;10546;50.674;4.616;2023-02-28T14:50:24;4.83;;;3.20;;
20772;SDS011;10546;50.674;4.616;2023-02-28T14:52:56;6.40;;;3.73;;
20772;SDS011;10546;50.674;4.616;2023-02-28T14:55:30;4.67;;;2.90;;
20772;SDS011;10546;50.674;4.616;2023-02-28T14:58:03;8.67;;;4.00;;
20772;SDS011;10546;50.674;4.616;2023-02-28T15:00:36;5.30;;;3.63;;
20772;SDS011;10546;50.674;4.616;2023-02-28T15:03:17;5.83;;;3.93;;
20772;SDS011;10546;50.674;4.616;2023-02-28T15:05:55;5.30;;;4.00;;
20772;SDS011;10546;50.674;4.616;2023-02-28T15:08:25;6.37;;;3.90;;
20772;SDS011;10546;50.674;4.616;2023-02-28T15:11:07;6.87;;;4.17;;
20772;SDS011;10546;50.674;4.616;2023-02-28T15:13:42;5.03;;;3.53;;
20772;SDS011;10546;50.674;4.616;2023-02-28T15:16:19;4.60;;;3.77;;
20772;SDS011;10546;50.674;4.616;2023-02-28T15:18:54;4.27;;;3.40;;
20772;SDS011;10546;50.674;4.616;2023-02-28T15:23:58;6.10;;;3.40;;
20772;SDS011;10546;50.674;4.616;2023-02-28T15:26:32;4.57;;;3.37;;
20772;SDS011;10546;50.674;4.616;2023-02-28T15:29:08;9.37;;;4.47;;
20772;SDS011;10546;50.674;4.616;2023-02-28T15:31:43;4.50;;;2.97;;
20772;SDS011;10546;50.674;4.616;2023-02-28T15:34:21;6.47;;;4.40;;
20772;SDS011;10546;50.674;4.616;2023-02-28T15:36:51;5.40;;;3.57;;
20772;SDS011;10546;50.674;4.616;2023-02-28T15:39:25;4.53;;;3.57;;
20772;SDS011;10546;50.674;4.616;2023-02-28T15:42:10;6.13;;;4.23;;
20772;SDS011;10546;50.674;4.616;2023-02-28T15:44:37;6.10;;;4.00;;
20772;SDS011;10546;50.674;4.616;2023-02-28T15:47:04;6.03;;;4.23;;
20772;SDS011;10546;50.674;4.616;2023-02-28T15:49:45;7.03;;;3.03;;
20772;SDS011;10546;50.674;4.616;2023-02-28T15:52:28;7.00;;;4.00;;
20772;SDS011;10546;50.674;4.616;2023-02-28T15:54:59;4.43;;;3.83;;
20772;SDS011;10546;50.674;4.616;2023-02-28T15:57:54;10.90;;;5.67;;
20772;SDS011;10546;50.674;4.616;2023-02-28T16:00:24;7.60;;;4.20;;
20772;SDS011;10546;50.674;4.616;2023-02-28T16:02:51;4.73;;;3.40;;
20772;SDS011;10546;50.674;4.616;2023-02-28T16:05:29;7.90;;;4.80;;
20772;SDS011;10546;50.674;4.616;2023-02-28T16:08:14;6.77;;;4.30;;
20772;SDS011;10546;50.674;4.616;2023-02-28T16:10:40;6.93;;;4.40;;
20772;SDS011;10546;50.674;4.616;2023-02-28T16:13:08;4.70;;;3.80;;
20772;SDS011;10546;50.674;4.616;2023-02-28T16:15:41;5.20;;;3.30;;
20772;SDS011;10546;50.674;4.616;2023-02-28T16:18:08;7.50;;;3.90;;
20772;SDS011;10546;50.674;4.616;2023-02-28T16:20:36;8.27;;;3.97;;
20772;SDS011;10546;50.674;4.616;2023-02-28T16:23:05;5.73;;;3.63;;
20772;SDS011;10546;50.674;4.616;2023-02-28T16:25:36;8.10;;;4.57;;
20772;SDS011;10546;50.674;4.616;2023-02-28T16:28:05;5.43;;;4.23;;
20772;SDS011;10546;50.674;4.616;2023-02-28T16:30:41;6.10;;;3.80;;
20772;SDS011;10546;50.674;4.616;2023-02-28T16:33:07;6.27;;;3.93;;
20772;SDS011;10546;50.674;4.616;2023-02-28T16:35:34;7.77;;;4.23;;
20772;SDS011;10546;50.674;4.616;2023-02-28T16:38:00;5.00;;;3.87;;
20772;SDS011;10546;50.674;4.616;2023-02-28T16:40:26;6.27;;;4.30;;
20772;SDS011;10546;50.674;4.616;2023-02-28T16:42:55;6.67;;;4.10;;
20772;SDS011;10546;50.674;4.616;2023-02-28T16:45:27;5.87;;;4.27;;
20772;SDS011;10546;50.674;4.616;2023-02-28T16:47:54;8.33;;;4.50;;
20772;SDS011;10546;50.674;4.616;2023-02-28T16:50:21;7.13;;;4.37;;
20772;SDS011;10546;50.674;4.616;2023-02-28T16:52:49;9.43;;;5.00;;
20772;SDS011;10546;50.674;4.616;2023-02-28T16:55:17;12.57;;;4.43;;
20772;SDS011;10546;50.674;4.616;2023-02-28T16:57:50;6.57;;;4.63;;
20772;SDS011;10546;50.674;4.616;2023-02-28T17:00:21;8.17;;;5.00;;
20772;SDS011;10546;50.674;4.616;2023-02-28T17:02:47;6.77;;;4.80;;
20772;SDS011;10546;50.674;4.616;2023-02-28T17:05:13;8.67;;;5.30;;
20772;SDS011;10546;50.674;4.616;2023-02-28T17:07:40;15.70;;;6.40;;
20772;SDS011;10546;50.674;4.616;2023-02-28T17:10:17;8.37;;;5.07;;
20772;SDS011;10546;50.674;4.616;2023-02-28T17:12:45;8.43;;;4.93;;
20772;SDS011;10546;50.674;4.616;2023-02-28T17:15:11;7.00;;;4.93;;
20772;SDS011;10546;50.674;4.616;2023-02-28T17:17:39;7.67;;;4.90;;
20772;SDS011;10546;50.674;4.616;2023-02-28T17:20:05;8.70;;;5.07;;
20772;SDS011;10546;50.674;4.616;2023-02-28T17:22:36;9.87;;;6.10;;
20772;SDS011;10546;50.674;4.616;2023-02-28T17:25:02;8.47;;;5.87;;
20772;SDS011;10546;50.674;4.616;2023-02-28T17:27:28;13.30;;;6.83;;
20772;SDS011;10546;50.674;4.616;2023-02-28T17:29:53;13.60;;;6.10;;
20772;SDS011;10546;50.674;4.616;2023-02-28T17:32:20;13.33;;;5.70;;
20772;SDS011;10546;50.674;4.616;2023-02-28T17:34:45;10.27;;;6.37;;
20772;SDS011;10546;50.674;4.616;2023-02-28T17:37:11;10.50;;;5.53;;
20772;SDS011;10546;50.674;4.616;2023-02-28T17:39:36;10.47;;;5.63;;
20772;SDS011;10546;50.674;4.616;2023-02-28T17:42:02;9.43;;;5.87;;
20772;SDS011;10546;50.674;4.616;2023-02-28T17:44:28;9.10;;;5.70;;